Aeroporto :
LOGIN :

Iscrizione | Disclaimer

   EN    FR    IT 

 










Sommario :    VFR   VFR Marginale   IFR   IFR Intensivo   IFR Molto Intensivo
Visibilità : 
Base nubi : 
>= 8 km
>= 3000ft
5 / 8 km
1000 / 3000 ft
1500m / 5 km
500 / 1000 ft
800 / 1500m
200 / 500 ft
< 800m
< 200 ft
Simboli :   Temporali  Nebbia  Neve Forte  Precipitazioni Forti  Vento > 20 kt
SIGMETs :   Varie  Temporali  Ghiacco  Turbolenza  Onda orograficha  Ceneri Vulcaniche







- Altitudine del aeroporto : 1470 ft


LSMD - Dubendorf Military

ULTIMO METAR :
  • 190550Z 12004KT 9999 -RA FEW011 SCT031 BKN037 18/17 Q1018 RMK BLU

METARs OBSOLETI :
  • 190520Z 12006KT 030V150 7000 RA FEW014 BKN031 OVC052 17/17 Q1018 RMK WHT
  • 190450Z 03004KT 020V160 3800 RA FEW014 BKN026 OVC072 18/17 Q1019 RMK GRN
  • 190420Z AUTO 15003KT 090V230 9999NDV -RA FEW021 SCT034 OVC099 17/17 Q1018 RERA RMK

Previsioni scadute.
Nessun NOTAM noto per questo aeroporto.



MetMap, La meteo Aeronautica in un colpo d'occhio ! - Copyright ORBIFLY Dicembre 2007 - Disclaimer

ORBIFLY MET'MAP TEAM :

Programmazione e sviluppo : Alexandra Zaïnal
Concezione e sviluppo : Baudouin d'Aumeries
Co-Programmazione e sviluppo : Marc-Olivier Méhu
Supporto tecnico e logistico : Manuel Goepfert
Aiuto per la traduzione : Arnaldo La Scala

Contatto : metmap@orbifly.com




FONTI E CREDITI :

   NOAA